Howard Beach, New York
Current Conditions -  °F | °C
As of 6:51 PM on Sunday 25 Jan 2015 (Local Time) from KJFK Reporting Station
Broken Clouds Broken Clouds  
Wind Chill: -2°   Ceiling: 26000
Heat Index:   Visibility: 10mi
Dew Point: -13°   Wind: 13mph
Humidity: 33%   Direction: 330°NNW
Pressure: 29.92"   Gusts: NA
Location:  40.66°N, 73.84°W
Report Text: KJFK 252351Z 33011KT 10SM FEW080 SCT140 BKN260 02/M13 A2992 RMK AO2 SLP131 T00221128 10072 20022 51035 $
Loading
Personal Weather Stations






























Interactive Weather Map New forecast layout! Learn more

10-Day Weather Forecast

Advertisements
Track Severe Weather on mobile